sensor_id;sensor_type;location;lat;lon;timestamp;pressure;altitude;pressure_sealevel;temperature;humidity
13478;BME280;12598;62.382;17.344;2023-02-22T00:00:18;101809.47;;;14.78;18.13
13478;BME280;12598;62.382;17.344;2023-02-22T00:01:20;101798.28;;;14.74;18.56
13478;BME280;12598;62.382;17.344;2023-02-22T00:02:49;101809.16;;;14.83;18.46
13478;BME280;12598;62.382;17.344;2023-02-22T00:03:51;101810.22;;;14.80;18.39
13478;BME280;12598;62.382;17.344;2023-02-22T00:04:54;101807.66;;;14.79;18.41
13478;BME280;12598;62.382;17.344;2023-02-22T00:05:58;101817.56;;;14.77;18.29
13478;BME280;12598;62.382;17.344;2023-02-22T00:07:00;101808.72;;;14.77;18.86
13478;BME280;12598;62.382;17.344;2023-02-22T00:08:02;101806.16;;;14.75;18.53
13478;BME280;12598;62.382;17.344;2023-02-22T00:09:04;101803.16;;;14.67;18.68
13478;BME280;12598;62.382;17.344;2023-02-22T00:10:07;101809.78;;;14.74;18.59
13478;BME280;12598;62.382;17.344;2023-02-22T00:11:14;101813.31;;;14.75;18.46
13478;BME280;12598;62.382;17.344;2023-02-22T00:12:17;101802.19;;;14.68;18.43
13478;BME280;12598;62.382;17.344;2023-02-22T00:13:21;101809.78;;;14.74;18.51
13478;BME280;12598;62.382;17.344;2023-02-22T00:14:23;101811.69;;;14.72;18.68
13478;BME280;12598;62.382;17.344;2023-02-22T00:15:28;101818.84;;;14.72;18.51
13478;BME280;12598;62.382;17.344;2023-02-22T00:16:29;101811.88;;;14.69;18.63
13478;BME280;12598;62.382;17.344;2023-02-22T00:17:32;101813.50;;;14.72;18.76
13478;BME280;12598;62.382;17.344;2023-02-22T00:18:34;101814.47;;;14.71;18.46
13478;BME280;12598;62.382;17.344;2023-02-22T00:19:36;101818.91;;;14.70;18.77
13478;BME280;12598;62.382;17.344;2023-02-22T00:20:39;101810.94;;;14.70;18.55
13478;BME280;12598;62.382;17.344;2023-02-22T00:21:41;101813.59;;;14.70;18.80
13478;BME280;12598;62.382;17.344;2023-02-22T00:22:46;101817.22;;;14.69;18.70
13478;BME280;12598;62.382;17.344;2023-02-22T00:23:48;101804.50;;;14.60;18.67
13478;BME280;12598;62.382;17.344;2023-02-22T00:24:50;101820.75;;;14.70;18.31
13478;BME280;12598;62.382;17.344;2023-02-22T00:25:52;101820.81;;;14.68;18.78
13478;BME280;12598;62.382;17.344;2023-02-22T00:26:54;101822.53;;;14.69;18.21
13478;BME280;12598;62.382;17.344;2023-02-22T00:27:56;101821.69;;;14.69;18.35
13478;BME280;12598;62.382;17.344;2023-02-22T00:28:58;101824.44;;;14.67;18.49
13478;BME280;12598;62.382;17.344;2023-02-22T00:30:01;101813.13;;;14.64;18.53
13478;BME280;12598;62.382;17.344;2023-02-22T00:31:05;101817.41;;;14.66;18.41
13478;BME280;12598;62.382;17.344;2023-02-22T00:32:08;101825.31;;;14.68;18.58
13478;BME280;12598;62.382;17.344;2023-02-22T00:33:11;101824.44;;;14.67;18.44
13478;BME280;12598;62.382;17.344;2023-02-22T00:34:13;101829.78;;;14.67;18.38
13478;BME280;12598;62.382;17.344;2023-02-22T00:35:19;101821.88;;;14.66;18.45
13478;BME280;12598;62.382;17.344;2023-02-22T00:36:21;101816.13;;;14.59;18.45
13478;BME280;12598;62.382;17.344;2023-02-22T00:37:23;101820.91;;;14.67;18.38
13478;BME280;12598;62.382;17.344;2023-02-22T00:38:25;101830.72;;;14.66;18.37
13478;BME280;12598;62.382;17.344;2023-02-22T00:39:27;101833.47;;;14.65;18.63
13478;BME280;12598;62.382;17.344;2023-02-22T00:40:31;101809.47;;;14.52;18.33
13478;BME280;12598;62.382;17.344;2023-02-22T00:41:33;101829.09;;;14.64;18.27
13478;BME280;12598;62.382;17.344;2023-02-22T00:42:37;101828.47;;;14.60;18.64
13478;BME280;12598;62.382;17.344;2023-02-22T00:43:39;101831.88;;;14.62;18.40
13478;BME280;12598;62.382;17.344;2023-02-22T00:44:41;101834.41;;;14.64;18.52
13478;BME280;12598;62.382;17.344;2023-02-22T00:45:45;101836.25;;;14.63;19.00
13478;BME280;12598;62.382;17.344;2023-02-22T00:46:48;101825.59;;;14.63;18.74
13478;BME280;12598;62.382;17.344;2023-02-22T00:47:50;101813.31;;;14.48;18.71
13478;BME280;12598;62.382;17.344;2023-02-22T00:48:54;101836.34;;;14.62;18.26
13478;BME280;12598;62.382;17.344;2023-02-22T00:49:56;101828.47;;;14.60;18.82
13478;BME280;12598;62.382;17.344;2023-02-22T00:50:58;101839.09;;;14.60;18.92
13478;BME280;12598;62.382;17.344;2023-02-22T00:52:00;101841.00;;;14.58;18.66
13478;BME280;12598;62.382;17.344;2023-02-22T00:53:03;101829.72;;;14.55;18.50
13478;BME280;12598;62.382;17.344;2023-02-22T00:54:06;101841.84;;;14.59;18.37
13478;BME280;12598;62.382;17.344;2023-02-22T00:55:13;101826.50;;;14.50;18.61
13478;BME280;12598;62.382;17.344;2023-02-22T00:56:15;101841.00;;;14.58;18.87
13478;BME280;12598;62.382;17.344;2023-02-22T00:57:17;101844.50;;;14.59;18.52
13478;BME280;12598;62.382;17.344;2023-02-22T00:58:20;101839.72;;;14.51;18.88
13478;BME280;12598;62.382;17.344;2023-02-22T00:59:22;101845.47;;;14.58;18.96
13478;BME280;12598;62.382;17.344;2023-02-22T01:00:33;101842.06;;;14.56;18.57
13478;BME280;12598;62.382;17.344;2023-02-22T01:01:36;101842.72;;;14.59;18.37
13478;BME280;12598;62.382;17.344;2023-02-22T01:02:42;101848.25;;;14.56;18.65
13478;BME280;12598;62.382;17.344;2023-02-22T01:03:47;101832.00;;;14.47;18.83
13478;BME280;12598;62.382;17.344;2023-02-22T01:04:50;101848.25;;;14.56;18.96
13478;BME280;12598;62.382;17.344;2023-02-22T01:05:52;101849.09;;;14.57;18.92
13478;BME280;12598;62.382;17.344;2023-02-22T01:06:53;101845.22;;;14.48;19.05
13478;BME280;12598;62.382;17.344;2023-02-22T01:07:58;101845.78;;;14.53;18.82
13478;BME280;12598;62.382;17.344;2023-02-22T01:09:01;101849.28;;;14.54;18.46
13478;BME280;12598;62.382;17.344;2023-02-22T01:10:04;101852.81;;;14.54;19.02
13478;BME280;12598;62.382;17.344;2023-02-22T01:11:06;101845.22;;;14.48;18.75
13478;BME280;12598;62.382;17.344;2023-02-22T01:12:07;101842.66;;;14.47;19.04
13478;BME280;12598;62.382;17.344;2023-02-22T01:13:10;101852.06;;;14.52;18.96
13478;BME280;12598;62.382;17.344;2023-02-22T01:14:13;101846.75;;;14.52;19.02
13478;BME280;12598;62.382;17.344;2023-02-22T01:15:18;101835.91;;;14.41;18.90
13478;BME280;12598;62.382;17.344;2023-02-22T01:16:22;101848.66;;;14.50;18.82
13478;BME280;12598;62.382;17.344;2023-02-22T01:17:25;101850.34;;;14.51;19.04
13478;BME280;12598;62.382;17.344;2023-02-22T01:18:27;101846.19;;;14.47;18.68
13478;BME280;12598;62.382;17.344;2023-02-22T01:19:29;101858.34;;;14.51;18.94
13478;BME280;12598;62.382;17.344;2023-02-22T01:20:33;101850.56;;;14.48;18.79
13478;BME280;12598;62.382;17.344;2023-02-22T01:21:35;101858.69;;;14.45;18.86
13478;BME280;12598;62.382;17.344;2023-02-22T01:22:42;101859.38;;;14.49;18.78
13478;BME280;12598;62.382;17.344;2023-02-22T01:23:44;101854.16;;;14.47;18.97
13478;BME280;12598;62.382;17.344;2023-02-22T01:24:48;101863.88;;;14.48;19.04
13478;BME280;12598;62.382;17.344;2023-02-22T01:25:50;101859.38;;;14.49;18.83
13478;BME280;12598;62.382;17.344;2023-02-22T01:26:51;101859.66;;;14.44;18.99
13478;BME280;12598;62.382;17.344;2023-02-22T01:27:54;101866.53;;;14.48;18.59
13478;BME280;12598;62.382;17.344;2023-02-22T01:28:56;101863.09;;;14.46;18.84
13478;BME280;12598;62.382;17.344;2023-02-22T01:29:59;101864.81;;;14.47;18.94
13478;BME280;12598;62.382;17.344;2023-02-22T01:31:01;101867.56;;;14.46;18.67
13478;BME280;12598;62.382;17.344;2023-02-22T01:32:04;101863.94;;;14.47;18.70
13478;BME280;12598;62.382;17.344;2023-02-22T01:33:08;101869.25;;;14.47;18.76
13478;BME280;12598;62.382;17.344;2023-02-22T01:34:11;101870.13;;;14.47;18.85
13478;BME280;12598;62.382;17.344;2023-02-22T01:35:17;101866.69;;;14.45;18.63
13478;BME280;12598;62.382;17.344;2023-02-22T01:36:19;101852.06;;;14.38;18.61
13478;BME280;12598;62.382;17.344;2023-02-22T01:37:22;101876.50;;;14.45;18.95
13478;BME280;12598;62.382;17.344;2023-02-22T01:38:24;101874.66;;;14.45;18.95
13478;BME280;12598;62.382;17.344;2023-02-22T01:39:28;101880.88;;;14.46;18.66
13478;BME280;12598;62.382;17.344;2023-02-22T01:40:33;101872.41;;;14.39;18.91
13478;BME280;12598;62.382;17.344;2023-02-22T01:41:36;101877.34;;;14.45;19.22
13478;BME280;12598;62.382;17.344;2023-02-22T01:42:39;101862.81;;;14.37;18.80
13478;BME280;12598;62.382;17.344;2023-02-22T01:43:41;101878.28;;;14.44;18.69
13478;BME280;12598;62.382;17.344;2023-02-22T01:44:43;101873.06;;;14.43;19.00
13478;BME280;12598;62.382;17.344;2023-02-22T01:45:49;101872.19;;;14.42;18.78
13478;BME280;12598;62.382;17.344;2023-02-22T01:46:55;101875.63;;;14.44;18.68
13478;BME280;12598;62.382;17.344;2023-02-22T01:48:06;101880.94;;;14.44;18.70
13478;BME280;12598;62.382;17.344;2023-02-22T01:49:10;101878.41;;;14.43;18.79
13478;BME280;12598;62.382;17.344;2023-02-22T01:50:12;101879.22;;;14.43;18.63
13478;BME280;12598;62.382;17.344;2023-02-22T01:51:21;101864.94;;;14.32;19.01
13478;BME280;12598;62.382;17.344;2023-02-22T01:52:24;101853.22;;;14.34;19.01
13478;BME280;12598;62.382;17.344;2023-02-22T01:53:45;101879.22;;;14.43;18.79
13478;BME280;12598;62.382;17.344;2023-02-22T01:54:54;101877.53;;;14.42;19.20
13478;BME280;12598;62.382;17.344;2023-02-22T01:55:58;101880.00;;;14.45;19.22
13478;BME280;12598;62.382;17.344;2023-02-22T01:58:04;101880.69;;;14.35;19.24
13478;BME280;12598;62.382;17.344;2023-02-22T01:59:10;101886.47;;;14.41;18.75
13478;BME280;12598;62.382;17.344;2023-02-22T02:00:16;101881.13;;;14.41;18.64
13478;BME280;12598;62.382;17.344;2023-02-22T02:01:22;101889.13;;;14.41;18.83
13478;BME280;12598;62.382;17.344;2023-02-22T02:02:24;101895.41;;;14.40;18.94
13478;BME280;12598;62.382;17.344;2023-02-22T02:03:30;101889.31;;;14.38;18.87
13478;BME280;12598;62.382;17.344;2023-02-22T02:04:34;101874.69;;;14.31;19.02
13478;BME280;12598;62.382;17.344;2023-02-22T02:05:37;101890.19;;;14.39;18.75
13478;BME280;12598;62.382;17.344;2023-02-22T02:06:40;101882.59;;;14.33;18.91
13478;BME280;12598;62.382;17.344;2023-02-22T02:07:42;101889.31;;;14.38;19.32
13478;BME280;12598;62.382;17.344;2023-02-22T02:08:55;101888.56;;;14.36;19.32
13478;BME280;12598;62.382;17.344;2023-02-22T02:10:02;101890.47;;;14.34;18.83
13478;BME280;12598;62.382;17.344;2023-02-22T02:11:07;101890.47;;;14.34;18.75
13478;BME280;12598;62.382;17.344;2023-02-22T02:12:11;101880.88;;;14.32;19.29
13478;BME280;12598;62.382;17.344;2023-02-22T02:13:14;101891.16;;;14.38;18.91
13478;BME280;12598;62.382;17.344;2023-02-22T02:14:16;101895.59;;;14.37;18.82
13478;BME280;12598;62.382;17.344;2023-02-22T02:16:36;101896.66;;;14.35;19.20
13478;BME280;12598;62.382;17.344;2023-02-22T02:17:39;101888.75;;;14.33;18.92
13478;BME280;12598;62.382;17.344;2023-02-22T02:18:42;101896.47;;;14.38;19.03
13478;BME280;12598;62.382;17.344;2023-02-22T02:21:07;101897.41;;;14.37;18.89
13478;BME280;12598;62.382;17.344;2023-02-22T02:27:26;101903.50;;;14.39;19.33
13478;BME280;12598;62.382;17.344;2023-02-22T02:28:52;101900.91;;;14.37;19.00
13478;BME280;12598;62.382;17.344;2023-02-22T02:31:30;101908.81;;;14.39;19.33
13478;BME280;12598;62.382;17.344;2023-02-22T02:35:24;101904.44;;;14.38;19.19
13478;BME280;12598;62.382;17.344;2023-02-22T02:36:33;101910.53;;;14.40;18.90
13478;BME280;12598;62.382;17.344;2023-02-22T02:38:04;101905.97;;;14.42;19.05
13478;BME280;12598;62.382;17.344;2023-02-22T02:39:28;101907.75;;;14.41;18.73
13478;BME280;12598;62.382;17.344;2023-02-22T02:40:45;101901.88;;;14.36;19.18
13478;BME280;12598;62.382;17.344;2023-02-22T02:41:50;101908.91;;;14.37;19.03
13478;BME280;12598;62.382;17.344;2023-02-22T02:42:59;101905.59;;;14.34;18.84
13478;BME280;12598;62.382;17.344;2023-02-22T02:44:14;101910.03;;;14.33;19.10
13478;BME280;12598;62.382;17.344;2023-02-22T02:45:24;101908.34;;;14.32;18.95
13478;BME280;12598;62.382;17.344;2023-02-22T02:46:44;101912.63;;;14.35;19.25
13478;BME280;12598;62.382;17.344;2023-02-22T02:47:52;101899.03;;;14.25;18.87
13478;BME280;12598;62.382;17.344;2023-02-22T02:49:06;101911.88;;;14.33;19.20
13478;BME280;12598;62.382;17.344;2023-02-22T02:50:19;101918.97;;;14.32;19.04
13478;BME280;12598;62.382;17.344;2023-02-22T02:51:28;101918.13;;;14.32;18.85
13478;BME280;12598;62.382;17.344;2023-02-22T02:52:33;101919.94;;;14.31;19.29
13478;BME280;12598;62.382;17.344;2023-02-22T02:53:39;101918.34;;;14.29;18.96
13478;BME280;12598;62.382;17.344;2023-02-22T02:54:43;101926.38;;;14.27;19.01
13478;BME280;12598;62.382;17.344;2023-02-22T02:55:47;101918.53;;;14.26;18.79
13478;BME280;12598;62.382;17.344;2023-02-22T02:56:50;101893.69;;;14.11;19.26
13478;BME280;12598;62.382;17.344;2023-02-22T02:57:52;101926.59;;;14.24;19.01
13478;BME280;12598;62.382;17.344;2023-02-22T02:58:54;101923.16;;;14.22;18.68
13478;BME280;12598;62.382;17.344;2023-02-22T02:59:57;101924.88;;;14.23;19.10
13478;BME280;12598;62.382;17.344;2023-02-22T03:01:00;101926.78;;;14.21;19.09
13478;BME280;12598;62.382;17.344;2023-02-22T03:03:32;101927.44;;;14.25;19.24
13478;BME280;12598;62.382;17.344;2023-02-22T03:08:44;101930.88;;;14.27;19.03
13478;BME280;12598;62.382;17.344;2023-02-22T03:11:31;101928.09;;;14.28;19.09
13478;BME280;12598;62.382;17.344;2023-02-22T03:14:05;101932.66;;;14.26;19.11
13478;BME280;12598;62.382;17.344;2023-02-22T03:15:36;101923.66;;;14.29;19.29
13478;BME280;12598;62.382;17.344;2023-02-22T03:16:51;101923.72;;;14.27;19.06
13478;BME280;12598;62.382;17.344;2023-02-22T03:20:49;101923.72;;;14.27;19.38
13478;BME280;12598;62.382;17.344;2023-02-22T03:22:17;101919.34;;;14.26;19.12
13478;BME280;12598;62.382;17.344;2023-02-22T03:23:32;101919.75;;;14.20;18.93
13478;BME280;12598;62.382;17.344;2023-02-22T03:24:44;101908.53;;;14.15;19.36
13478;BME280;12598;62.382;17.344;2023-02-22T03:26:03;101929.31;;;14.23;19.26
13478;BME280;12598;62.382;17.344;2023-02-22T03:27:19;101926.78;;;14.21;19.04
13478;BME280;12598;62.382;17.344;2023-02-22T03:28:27;101932.09;;;14.21;19.40
13478;BME280;12598;62.382;17.344;2023-02-22T03:29:31;101929.63;;;14.18;19.07
13478;BME280;12598;62.382;17.344;2023-02-22T03:30:45;101916.00;;;14.09;19.47
13478;BME280;12598;62.382;17.344;2023-02-22T03:31:55;101930.56;;;14.17;19.69
13478;BME280;12598;62.382;17.344;2023-02-22T03:33:40;101931.91;;;14.24;19.42
13478;BME280;12598;62.382;17.344;2023-02-22T03:34:47;101926.66;;;14.23;19.08
13478;BME280;12598;62.382;17.344;2023-02-22T03:36:00;101928.56;;;14.21;19.44
13478;BME280;12598;62.382;17.344;2023-02-22T03:37:17;101931.16;;;14.22;19.61
13478;BME280;12598;62.382;17.344;2023-02-22T03:38:20;101918.38;;;14.13;19.24
13478;BME280;12598;62.382;17.344;2023-02-22T03:39:24;101920.28;;;14.11;19.46
13478;BME280;12598;62.382;17.344;2023-02-22T03:40:40;101934.19;;;14.16;19.23
13478;BME280;12598;62.382;17.344;2023-02-22T03:41:47;101934.19;;;14.16;19.14
13478;BME280;12598;62.382;17.344;2023-02-22T03:43:02;101942.94;;;14.18;19.44
13478;BME280;12598;62.382;17.344;2023-02-22T03:44:14;101940.34;;;14.17;19.62
13478;BME280;12598;62.382;17.344;2023-02-22T03:45:20;101946.88;;;14.11;19.31
13478;BME280;12598;62.382;17.344;2023-02-22T03:46:26;101949.34;;;14.14;19.31
13478;BME280;12598;62.382;17.344;2023-02-22T03:47:37;101946.63;;;14.16;19.54
13478;BME280;12598;62.382;17.344;2023-02-22T03:49:01;101944.63;;;14.19;19.27
13478;BME280;12598;62.382;17.344;2023-02-22T03:50:24;101926.44;;;14.12;19.27
13478;BME280;12598;62.382;17.344;2023-02-22T03:51:30;101937.41;;;14.21;18.98
13478;BME280;12598;62.382;17.344;2023-02-22T03:52:34;101949.94;;;14.19;19.26
13478;BME280;12598;62.382;17.344;2023-02-22T03:53:40;101946.53;;;14.17;19.09
13478;BME280;12598;62.382;17.344;2023-02-22T03:54:42;101943.13;;;14.15;19.61
13478;BME280;12598;62.382;17.344;2023-02-22T03:55:46;101944.97;;;14.13;19.47
13478;BME280;12598;62.382;17.344;2023-02-22T03:56:56;101939.66;;;14.13;19.57
13478;BME280;12598;62.382;17.344;2023-02-22T03:58:04;101944.03;;;14.14;19.44
13478;BME280;12598;62.382;17.344;2023-02-22T03:59:08;101934.53;;;14.10;19.17
13478;BME280;12598;62.382;17.344;2023-02-22T04:00:17;101927.69;;;14.06;19.45
13478;BME280;12598;62.382;17.344;2023-02-22T04:01:20;101933.66;;;14.10;19.50
13478;BME280;12598;62.382;17.344;2023-02-22T04:02:24;101917.25;;;14.03;19.27
13478;BME280;12598;62.382;17.344;2023-02-22T04:03:26;101908.03;;;13.95;19.42
13478;BME280;12598;62.382;17.344;2023-02-22T04:04:28;101938.78;;;14.13;19.16
13478;BME280;12598;62.382;17.344;2023-02-22T04:05:30;101937.00;;;14.13;19.53
13478;BME280;12598;62.382;17.344;2023-02-22T04:06:32;101939.75;;;14.12;19.82
13478;BME280;12598;62.382;17.344;2023-02-22T04:07:35;101946.88;;;14.11;19.18
13478;BME280;12598;62.382;17.344;2023-02-22T04:08:37;101942.41;;;14.12;19.38
13478;BME280;12598;62.382;17.344;2023-02-22T04:09:39;101941.56;;;14.11;19.28
13478;BME280;12598;62.382;17.344;2023-02-22T04:10:42;101941.56;;;14.11;19.65
13478;BME280;12598;62.382;17.344;2023-02-22T04:11:45;101929.75;;;14.01;19.23
13478;BME280;12598;62.382;17.344;2023-02-22T04:12:47;101945.16;;;14.10;19.61
13478;BME280;12598;62.382;17.344;2023-02-22T04:13:49;101951.31;;;14.11;19.81
13478;BME280;12598;62.382;17.344;2023-02-22T04:14:52;101928.03;;;14.00;19.24
13478;BME280;12598;62.382;17.344;2023-02-22T04:15:54;101948.78;;;14.09;19.12
13478;BME280;12598;62.382;17.344;2023-02-22T04:16:56;101942.88;;;14.04;19.60
13478;BME280;12598;62.382;17.344;2023-02-22T04:17:58;101942.59;;;14.09;19.40
13478;BME280;12598;62.382;17.344;2023-02-22T04:19:01;101948.78;;;14.09;19.63
13478;BME280;12598;62.382;17.344;2023-02-22T04:20:03;101946.13;;;14.09;19.74
13478;BME280;12598;62.382;17.344;2023-02-22T04:21:21;101939.66;;;14.13;19.22
13478;BME280;12598;62.382;17.344;2023-02-22T04:22:24;101940.03;;;14.07;19.44
13478;BME280;12598;62.382;17.344;2023-02-22T04:23:26;101940.69;;;14.11;19.40
13478;BME280;12598;62.382;17.344;2023-02-22T04:24:28;101922.91;;;13.97;19.71
13478;BME280;12598;62.382;17.344;2023-02-22T04:25:31;101944.31;;;14.10;19.40
13478;BME280;12598;62.382;17.344;2023-02-22T04:26:44;101943.47;;;14.09;19.53
13478;BME280;12598;62.382;17.344;2023-02-22T04:27:46;101939.84;;;14.10;19.44
13478;BME280;12598;62.382;17.344;2023-02-22T04:28:49;101945.25;;;14.09;19.63
13478;BME280;12598;62.382;17.344;2023-02-22T04:29:52;101922.72;;;14.00;19.45
13478;BME280;12598;62.382;17.344;2023-02-22T04:30:55;101931.31;;;14.05;19.50
13478;BME280;12598;62.382;17.344;2023-02-22T04:31:57;101935.47;;;14.09;19.81
13478;BME280;12598;62.382;17.344;2023-02-22T04:32:59;101943.47;;;14.09;19.29
13478;BME280;12598;62.382;17.344;2023-02-22T04:34:01;101947.06;;;14.08;19.83
13478;BME280;12598;62.382;17.344;2023-02-22T04:35:07;101945.16;;;14.10;19.33
13478;BME280;12598;62.382;17.344;2023-02-22T04:36:10;101950.50;;;14.10;19.83
13478;BME280;12598;62.382;17.344;2023-02-22T04:37:12;101938.41;;;14.05;19.77
13478;BME280;12598;62.382;17.344;2023-02-22T04:38:14;101948.78;;;14.09;19.72
13478;BME280;12598;62.382;17.344;2023-02-22T04:39:16;101949.72;;;14.08;19.89
13478;BME280;12598;62.382;17.344;2023-02-22T04:40:18;101935.88;;;14.03;19.76
13478;BME280;12598;62.382;17.344;2023-02-22T04:41:21;101929.94;;;13.98;19.57
13478;BME280;12598;62.382;17.344;2023-02-22T04:42:26;101946.13;;;14.09;19.29
13478;BME280;12598;62.382;17.344;2023-02-22T04:43:29;101902.41;;;13.85;19.65
13478;BME280;12598;62.382;17.344;2023-02-22T04:44:51;101947.47;;;14.16;19.41
13478;BME280;12598;62.382;17.344;2023-02-22T04:45:53;101949.44;;;14.13;19.36
13478;BME280;12598;62.382;17.344;2023-02-22T04:46:55;101943.28;;;14.12;19.40
13478;BME280;12598;62.382;17.344;2023-02-22T04:47:58;101948.59;;;14.12;19.72
13478;BME280;12598;62.382;17.344;2023-02-22T04:49:00;101940.38;;;14.01;19.69
13478;BME280;12598;62.382;17.344;2023-02-22T04:50:06;101951.31;;;14.11;19.91
13478;BME280;12598;62.382;17.344;2023-02-22T04:51:08;101940.13;;;14.06;19.74
13478;BME280;12598;62.382;17.344;2023-02-22T04:52:13;101955.81;;;14.10;19.38
13478;BME280;12598;62.382;17.344;2023-02-22T04:53:16;101947.84;;;14.10;19.67
13478;BME280;12598;62.382;17.344;2023-02-22T04:54:18;101950.50;;;14.10;19.42
13478;BME280;12598;62.382;17.344;2023-02-22T04:55:21;101944.69;;;14.04;19.61
13478;BME280;12598;62.382;17.344;2023-02-22T04:56:23;101954.09;;;14.09;19.93
13478;BME280;12598;62.382;17.344;2023-02-22T04:57:25;101945.63;;;14.03;19.72
13478;BME280;12598;62.382;17.344;2023-02-22T04:58:27;101951.44;;;14.09;19.77
13478;BME280;12598;62.382;17.344;2023-02-22T04:59:29;101955.06;;;14.08;19.97
13478;BME280;12598;62.382;17.344;2023-02-22T05:00:34;101956.75;;;14.09;19.40
13478;BME280;12598;62.382;17.344;2023-02-22T05:01:37;101945.69;;;14.01;19.81
13478;BME280;12598;62.382;17.344;2023-02-22T05:02:39;101950.69;;;14.07;19.70
13478;BME280;12598;62.382;17.344;2023-02-22T05:03:41;101955.06;;;14.08;19.25
13478;BME280;12598;62.382;17.344;2023-02-22T05:04:43;101952.38;;;14.08;20.08
13478;BME280;12598;62.382;17.344;2023-02-22T05:05:45;101963.03;;;14.08;20.09
13478;BME280;12598;62.382;17.344;2023-02-22T05:06:47;101950.69;;;14.07;19.69
13478;BME280;12598;62.382;17.344;2023-02-22T05:07:49;101954.19;;;14.08;19.73
13478;BME280;12598;62.382;17.344;2023-02-22T05:08:51;101937.72;;;14.01;19.81
13478;BME280;12598;62.382;17.344;2023-02-22T05:09:53;101951.50;;;14.08;20.20
13478;BME280;12598;62.382;17.344;2023-02-22T05:10:55;101956.00;;;14.07;19.80
13478;BME280;12598;62.382;17.344;2023-02-22T05:11:57;101949.72;;;14.08;19.87
13478;BME280;12598;62.382;17.344;2023-02-22T05:12:59;101950.69;;;14.07;19.79
13478;BME280;12598;62.382;17.344;2023-02-22T05:14:02;101949.72;;;14.08;19.46
13478;BME280;12598;62.382;17.344;2023-02-22T05:15:06;101954.19;;;14.08;19.47
13478;BME280;12598;62.382;17.344;2023-02-22T05:16:08;101952.38;;;14.08;19.97
13478;BME280;12598;62.382;17.344;2023-02-22T05:17:10;101957.72;;;14.08;19.62
13478;BME280;12598;62.382;17.344;2023-02-22T05:18:13;101955.06;;;14.08;19.39
13478;BME280;12598;62.382;17.344;2023-02-22T05:19:15;101961.31;;;14.07;19.72
13478;BME280;12598;62.382;17.344;2023-02-22T05:20:29;101950.69;;;14.07;19.80
13478;BME280;12598;62.382;17.344;2023-02-22T05:21:32;101958.47;;;14.10;19.66
13478;BME280;12598;62.382;17.344;2023-02-22T05:22:34;101956.75;;;14.09;19.89
13478;BME280;12598;62.382;17.344;2023-02-22T05:23:36;101960.44;;;14.07;20.03
13478;BME280;12598;62.382;17.344;2023-02-22T05:24:38;101945.69;;;14.01;19.75
13478;BME280;12598;62.382;17.344;2023-02-22T05:25:40;101952.91;;;13.99;19.73
13478;BME280;12598;62.382;17.344;2023-02-22T05:26:43;101966.72;;;14.06;19.59
13478;BME280;12598;62.382;17.344;2023-02-22T05:27:57;101969.19;;;14.09;20.11
13478;BME280;12598;62.382;17.344;2023-02-22T05:28:59;101964.75;;;14.09;19.91
13478;BME280;12598;62.382;17.344;2023-02-22T05:30:02;101957.13;;;14.03;19.97
13478;BME280;12598;62.382;17.344;2023-02-22T05:31:04;101961.31;;;14.07;19.53
13478;BME280;12598;62.382;17.344;2023-02-22T05:32:08;101952.91;;;13.99;20.04
13478;BME280;12598;62.382;17.344;2023-02-22T05:33:10;101971.09;;;14.07;19.86
13478;BME280;12598;62.382;17.344;2023-02-22T05:34:12;101964.06;;;14.06;19.75
13478;BME280;12598;62.382;17.344;2023-02-22T05:35:15;101964.94;;;14.06;19.68
13478;BME280;12598;62.382;17.344;2023-02-22T05:36:17;101955.69;;;13.98;19.62
13478;BME280;12598;62.382;17.344;2023-02-22T05:37:19;101958.84;;;14.04;19.71
13478;BME280;12598;62.382;17.344;2023-02-22T05:38:21;101965.88;;;14.05;19.48
13478;BME280;12598;62.382;17.344;2023-02-22T05:39:23;101970.44;;;14.03;19.66
13478;BME280;12598;62.382;17.344;2023-02-22T05:40:26;101959.28;;;13.97;19.66
13478;BME280;12598;62.382;17.344;2023-02-22T05:41:28;101971.19;;;14.05;19.56
13478;BME280;12598;62.382;17.344;2023-02-22T05:42:30;101969.47;;;14.04;19.74
13478;BME280;12598;62.382;17.344;2023-02-22T05:43:31;101970.31;;;14.05;19.87
13478;BME280;12598;62.382;17.344;2023-02-22T05:44:33;101955.13;;;13.93;19.64
13478;BME280;12598;62.382;17.344;2023-02-22T05:45:35;101969.47;;;14.04;20.01
13478;BME280;12598;62.382;17.344;2023-02-22T05:46:37;101971.19;;;14.05;19.53
13478;BME280;12598;62.382;17.344;2023-02-22T05:47:39;101973.84;;;14.05;19.55
13478;BME280;12598;62.382;17.344;2023-02-22T05:48:41;101928.59;;;13.77;19.82
13478;BME280;12598;62.382;17.344;2023-02-22T05:49:43;101958.44;;;13.96;19.69
13478;BME280;12598;62.382;17.344;2023-02-22T05:50:45;101982.78;;;14.04;19.50
13478;BME280;12598;62.382;17.344;2023-02-22T05:51:47;101971.47;;;14.01;19.73
13478;BME280;12598;62.382;17.344;2023-02-22T05:52:49;101977.47;;;14.04;19.54
13478;BME280;12598;62.382;17.344;2023-02-22T05:53:50;101972.97;;;14.05;19.51
13478;BME280;12598;62.382;17.344;2023-02-22T05:54:53;101986.28;;;14.05;19.43
13478;BME280;12598;62.382;17.344;2023-02-22T05:55:55;101979.25;;;14.04;19.68
13478;BME280;12598;62.382;17.344;2023-02-22T05:56:57;101971.53;;;13.99;19.62
13478;BME280;12598;62.382;17.344;2023-02-22T05:57:58;101984.50;;;14.05;19.53
13478;BME280;12598;62.382;17.344;2023-02-22T05:59:02;101980.97;;;14.05;19.89
13478;BME280;12598;62.382;17.344;2023-02-22T06:00:05;101988.09;;;14.04;19.97